Aviation Digital Data Service (ADDS)

Output produced by TAFs form (0656 UTC 27 March 2015)
found at http://www.aviationweather.gov/adds/tafs/
 
KAPA 270653Z 28003KT 10SM BKN110 08/M01 A3018 RMK AO2 SLP198 T00781011 401501028
KAPA 270525Z 2706/2806 20005KT P6SM SCT080 BKN100 
     FM270900 20010KT P6SM SCT080 BKN150 
     FM271500 25007KT P6SM SCT100 BKN200 
     FM271900 32010G17KT P6SM SCT100 BKN200 
     FM280100 23005KT P6SM SCT120 BKN200 
     FM280400 19007KT P6SM FEW120 SCT200